Time,TemperatureF,DewpointF,PressureIn,WindDirection,WindDirectionDegrees,WindSpeedMPH,WindSpeedGustMPH,Humidity,HourlyPrecipIn,Conditions,Clouds,dailyrainin,SolarRadiationWatts/m^2,SoftwareType,DateUTC
2013-05-10 00:01:00,50.0,50.0,-100.00,SSW,192,7.0,14.0,100,0.00,,,0.00,0.000000,,2013-05-10 07:01:00,
2013-05-10 00:11:00,50.0,50.0,-100.00,SSW,192,7.0,14.0,100,0.00,,,0.00,0.000000,,2013-05-10 07:11:00,
2013-05-10 00:22:00,50.0,50.0,-100.00,SSW,192,7.0,14.0,100,0.00,,,0.00,0.000000,,2013-05-10 07:22:00,
2013-05-10 00:42:00,50.0,50.0,-100.00,SSW,199,5.0,11.0,100,0.00,,,0.00,0.000000,,2013-05-10 07:42:00,
2013-05-10 00:52:00,50.0,50.0,-100.00,SSW,199,5.0,11.0,100,0.00,,,0.00,0.000000,,2013-05-10 07:52:00,
2013-05-10 01:02:00,50.0,50.0,-100.00,SSW,199,5.0,11.0,100,0.00,,,0.00,0.000000,,2013-05-10 08:02:00,
2013-05-10 01:12:00,50.0,50.0,-100.00,SSW,199,5.0,11.0,100,0.00,,,0.00,0.000000,,2013-05-10 08:12:00,
2013-05-10 01:21:00,50.0,50.0,-100.00,SSW,199,5.0,11.0,100,0.00,,,0.00,0.000000,,2013-05-10 08:21:00,
2013-05-10 01:52:00,50.0,50.0,-100.00,SSW,193,2.0,7.0,100,0.00,,,0.00,0.000000,,2013-05-10 08:52:00,
2013-05-10 02:01:00,50.0,50.0,-100.00,SSW,193,2.0,7.0,100,0.00,,,0.00,0.000000,,2013-05-10 09:01:00,
2013-05-10 02:11:00,50.0,50.0,-100.00,SSW,193,2.0,7.0,100,0.00,,,0.00,0.000000,,2013-05-10 09:11:00,
2013-05-10 02:21:00,50.0,50.0,-100.00,SSW,193,2.0,7.0,100,0.00,,,0.00,0.000000,,2013-05-10 09:21:00,
2013-05-10 02:52:00,49.0,49.0,-100.00,SW,223,3.0,6.0,100,0.00,,,0.00,0.000000,,2013-05-10 09:52:00,
2013-05-10 03:02:00,49.0,49.0,-100.00,SW,223,3.0,6.0,100,0.00,,,0.00,0.000000,,2013-05-10 10:02:00,
2013-05-10 03:12:00,49.0,49.0,-100.00,SW,223,3.0,6.0,100,0.00,,,0.00,0.000000,,2013-05-10 10:12:00,
2013-05-10 03:23:00,49.0,49.0,-100.00,SW,223,3.0,6.0,100,0.00,,,0.00,0.000000,,2013-05-10 10:23:00,
2013-05-10 03:52:00,49.0,49.0,-100.00,SSE,153,2.0,7.0,100,0.00,,,-99.99,0.000000,,2013-05-10 10:52:00,
2013-05-10 04:02:00,49.0,49.0,-100.00,SSE,153,2.0,7.0,100,0.00,,,-99.99,0.000000,,2013-05-10 11:02:00,
2013-05-10 04:12:00,49.0,49.0,-100.00,SSE,153,2.0,7.0,100,0.00,,,-99.99,0.000000,,2013-05-10 11:12:00,
2013-05-10 04:21:00,49.0,49.0,-100.00,SSE,153,2.0,7.0,100,0.00,,,-99.99,0.000000,,2013-05-10 11:21:00,
2013-05-10 06:52:00,50.0,50.0,-100.00,West,268,3.0,4.0,100,-99.99,,,-99.99,2.000000,,2013-05-10 13:52:00,
2013-05-10 07:02:00,50.0,50.0,-100.00,West,268,3.0,4.0,100,-99.99,,,-99.99,2.000000,,2013-05-10 14:02:00,
2013-05-10 07:11:00,50.0,50.0,-100.00,West,268,3.0,4.0,100,-99.99,,,-99.99,2.000000,,2013-05-10 14:11:00,
2013-05-10 07:21:00,50.0,50.0,-100.00,West,268,3.0,4.0,100,-99.99,,,-99.99,2.000000,,2013-05-10 14:21:00,
2013-05-10 07:52:00,50.0,50.0,-100.00,SW,231,5.0,6.0,100,0.00,,,0.00,32.000000,,2013-05-10 14:52:00,
2013-05-10 08:01:00,50.0,50.0,-100.00,SW,231,5.0,6.0,100,0.00,,,0.00,32.000000,,2013-05-10 15:01:00,
2013-05-10 08:20:00,-999.0,-99.9,-100.00,SW,231,5.0,6.0,100,0.00,,,0.00,32.000000,,2013-05-10 15:20:00,
2013-05-10 08:53:00,54.0,53.0,-100.00,SSW,206,3.0,5.0,97,0.00,,,0.00,175.000000,,2013-05-10 15:53:00,
2013-05-10 09:02:00,54.0,53.0,-100.00,SSW,206,3.0,5.0,97,0.00,,,0.00,175.000000,,2013-05-10 16:02:00,
2013-05-10 09:12:00,54.0,53.0,-100.00,SSW,206,3.0,5.0,97,0.00,,,0.00,175.000000,,2013-05-10 16:12:00,
2013-05-10 09:23:00,54.0,53.0,-100.00,SSW,206,3.0,5.0,97,0.00,,,0.00,175.000000,,2013-05-10 16:23:00,
2013-05-10 09:52:00,56.0,53.0,-100.00,SW,225,8.0,11.0,90,0.00,,,0.00,456.000000,,2013-05-10 16:52:00,
2013-05-10 10:02:00,56.0,53.0,-100.00,SW,225,8.0,11.0,90,0.00,,,0.00,456.000000,,2013-05-10 17:02:00,
2013-05-10 10:12:00,56.0,53.0,-100.00,SW,225,8.0,11.0,90,0.00,,,0.00,456.000000,,2013-05-10 17:12:00,
2013-05-10 10:21:00,56.0,53.0,-100.00,SW,225,8.0,11.0,90,0.00,,,0.00,456.000000,,2013-05-10 17:21:00,
2013-05-10 10:52:00,59.0,54.0,-100.00,SSW,203,6.0,11.0,82,0.00,,,0.00,636.000000,,2013-05-10 17:52:00,
2013-05-10 11:10:00,-999.0,-99.9,-100.00,SSW,203,6.0,11.0,82,0.00,,,0.00,636.000000,,2013-05-10 18:10:00,
2013-05-10 11:21:00,59.0,54.0,-100.00,SSW,203,6.0,11.0,82,0.00,,,0.00,636.000000,,2013-05-10 18:21:00,
2013-05-10 11:54:00,64.0,54.0,-100.00,SSW,196,6.0,13.0,71,0.00,,,0.00,774.000000,,2013-05-10 18:54:00,
2013-05-10 12:02:00,64.0,54.0,-100.00,SSW,196,6.0,13.0,71,0.00,,,0.00,774.000000,,2013-05-10 19:02:00,
2013-05-10 12:11:00,64.0,54.0,-100.00,SSW,196,6.0,13.0,71,0.00,,,0.00,774.000000,,2013-05-10 19:11:00,
2013-05-10 12:21:00,64.0,54.0,-100.00,SSW,196,6.0,13.0,71,0.00,,,0.00,774.000000,,2013-05-10 19:21:00,
2013-05-10 12:52:00,68.0,54.0,-100.00,South,182,6.0,11.0,60,0.00,,,0.00,850.000000,,2013-05-10 19:52:00,
2013-05-10 13:01:00,68.0,54.0,-100.00,South,182,6.0,11.0,60,0.00,,,0.00,850.000000,,2013-05-10 20:01:00,
2013-05-10 13:11:00,68.0,54.0,-100.00,South,182,6.0,11.0,60,0.00,,,0.00,850.000000,,2013-05-10 20:11:00,
2013-05-10 13:21:00,68.0,54.0,-100.00,South,182,6.0,11.0,60,0.00,,,0.00,850.000000,,2013-05-10 20:21:00,
2013-05-10 13:52:00,70.0,55.0,-100.00,SW,216,10.0,18.0,60,0.00,,,0.00,882.000000,,2013-05-10 20:52:00,
2013-05-10 14:01:00,70.0,55.0,-100.00,SW,216,10.0,18.0,60,0.00,,,0.00,882.000000,,2013-05-10 21:01:00,
2013-05-10 14:11:00,70.0,55.0,-100.00,SW,216,10.0,18.0,60,0.00,,,0.00,882.000000,,2013-05-10 21:11:00,
2013-05-10 14:24:00,70.0,55.0,-100.00,SW,216,10.0,18.0,60,0.00,,,0.00,882.000000,,2013-05-10 21:24:00,
2013-05-10 14:52:00,69.0,55.0,-100.00,SSW,202,8.0,16.0,61,0.00,,,0.00,873.000000,,2013-05-10 21:52:00,
2013-05-10 15:02:00,69.0,55.0,-100.00,SSW,202,8.0,16.0,61,0.00,,,0.00,873.000000,,2013-05-10 22:02:00,
2013-05-10 15:12:00,69.0,55.0,-100.00,SSW,202,8.0,16.0,61,0.00,,,0.00,873.000000,,2013-05-10 22:12:00,
2013-05-10 15:22:00,69.0,55.0,-100.00,SSW,202,8.0,16.0,61,0.00,,,0.00,873.000000,,2013-05-10 22:22:00,
2013-05-10 15:52:00,68.0,54.0,-100.00,SSW,192,11.0,15.0,60,0.00,,,0.00,808.000000,,2013-05-10 22:52:00,
2013-05-10 16:02:00,68.0,54.0,-100.00,SSW,192,11.0,15.0,60,0.00,,,0.00,808.000000,,2013-05-10 23:02:00,
2013-05-10 16:12:00,68.0,54.0,-100.00,SSW,192,11.0,15.0,60,0.00,,,0.00,808.000000,,2013-05-10 23:12:00,
2013-05-10 16:22:00,68.0,54.0,-100.00,SSW,192,11.0,15.0,60,0.00,,,0.00,808.000000,,2013-05-10 23:22:00,
2013-05-10 16:52:00,64.0,53.0,-100.00,SSW,202,13.0,19.0,68,0.00,,,0.00,701.000000,,2013-05-10 23:52:00,
2013-05-10 17:01:00,64.0,53.0,-100.00,SSW,202,13.0,19.0,68,0.00,,,0.00,701.000000,,2013-05-11 00:01:00,
2013-05-10 17:11:00,64.0,53.0,-100.00,SSW,202,13.0,19.0,68,0.00,,,0.00,701.000000,,2013-05-11 00:11:00,
2013-05-10 17:21:00,64.0,53.0,-100.00,SSW,202,13.0,19.0,68,0.00,,,0.00,701.000000,,2013-05-11 00:21:00,
2013-05-10 17:52:00,65.0,53.0,-100.00,South,185,11.0,16.0,64,0.00,,,0.00,542.000000,,2013-05-11 00:52:00,
2013-05-10 18:01:00,65.0,53.0,-100.00,South,185,11.0,16.0,64,0.00,,,0.00,542.000000,,2013-05-11 01:01:00,
2013-05-10 18:11:00,65.0,53.0,-100.00,South,185,11.0,16.0,64,0.00,,,0.00,542.000000,,2013-05-11 01:11:00,
2013-05-10 18:21:00,65.0,53.0,-100.00,South,185,11.0,16.0,64,0.00,,,0.00,542.000000,,2013-05-11 01:21:00,
2013-05-10 18:52:00,61.0,52.0,-100.00,South,183,10.0,15.0,72,0.00,,,0.00,361.000000,,2013-05-11 01:52:00,
2013-05-10 19:02:00,61.0,52.0,-100.00,South,183,10.0,15.0,72,0.00,,,0.00,361.000000,,2013-05-11 02:02:00,
2013-05-10 19:11:00,61.0,52.0,-100.00,South,183,10.0,15.0,72,0.00,,,0.00,361.000000,,2013-05-11 02:11:00,
2013-05-10 19:21:00,61.0,52.0,-100.00,South,183,10.0,15.0,72,0.00,,,0.00,361.000000,,2013-05-11 02:21:00,
2013-05-10 19:52:00,58.0,52.0,-100.00,South,188,8.0,12.0,80,0.00,,,0.00,176.000000,,2013-05-11 02:52:00,
2013-05-10 20:01:00,58.0,52.0,-100.00,South,188,8.0,12.0,80,0.00,,,0.00,176.000000,,2013-05-11 03:01:00,
2013-05-10 20:11:00,58.0,52.0,-100.00,South,188,8.0,12.0,80,0.00,,,0.00,176.000000,,2013-05-11 03:11:00,
2013-05-10 20:21:00,58.0,52.0,-100.00,South,188,8.0,12.0,80,0.00,,,0.00,176.000000,,2013-05-11 03:21:00,
2013-05-10 20:53:00,53.0,52.0,-100.00,South,180,6.0,11.0,96,0.00,,,0.00,19.000000,,2013-05-11 03:53:00,
2013-05-10 21:02:00,53.0,52.0,-100.00,South,180,6.0,11.0,96,0.00,,,0.00,19.000000,,2013-05-11 04:02:00,
2013-05-10 21:12:00,53.0,52.0,-100.00,South,180,6.0,11.0,96,0.00,,,0.00,19.000000,,2013-05-11 04:12:00,
2013-05-10 21:23:00,53.0,52.0,-100.00,South,180,6.0,11.0,96,0.00,,,0.00,19.000000,,2013-05-11 04:23:00,
2013-05-10 21:52:00,52.0,52.0,-100.00,SSW,198,3.0,7.0,100,0.00,,,0.00,0.000000,,2013-05-11 04:52:00,
2013-05-10 22:02:00,52.0,52.0,-100.00,SSW,198,3.0,7.0,100,0.00,,,0.00,0.000000,,2013-05-11 05:02:00,
2013-05-10 22:12:00,52.0,52.0,-100.00,SSW,198,3.0,7.0,100,0.00,,,0.00,0.000000,,2013-05-11 05:12:00,
2013-05-10 22:21:00,52.0,52.0,-100.00,SSW,198,3.0,7.0,100,0.00,,,0.00,0.000000,,2013-05-11 05:21:00,
2013-05-10 22:52:00,51.0,51.0,-100.00,SW,215,4.0,5.0,100,0.00,,,0.00,0.000000,,2013-05-11 05:52:00,
2013-05-10 23:02:00,51.0,51.0,-100.00,SW,215,4.0,5.0,100,0.00,,,0.00,0.000000,,2013-05-11 06:02:00,
2013-05-10 23:12:00,51.0,51.0,-100.00,SW,215,4.0,5.0,100,0.00,,,0.00,0.000000,,2013-05-11 06:12:00,
2013-05-10 23:21:00,51.0,51.0,-100.00,SW,215,4.0,5.0,100,0.00,,,0.00,0.000000,,2013-05-11 06:21:00,
2013-05-10 23:52:00,50.0,50.0,-100.00,South,178,1.0,4.0,100,0.00,,,0.00,0.000000,,2013-05-11 06:52:00,